sensor_id;sensor_type;location;lat;lon;timestamp;temperature;humidity
65637;DHT22;52327;42.622;23.316;2022-09-09T00:04:54;16.59;77.25
65637;DHT22;52327;42.622;23.316;2022-09-09T00:10:25;16.66;77.04
65637;DHT22;52327;42.622;23.316;2022-09-09T00:12:59;16.68;77.10
65637;DHT22;52327;42.622;23.316;2022-09-09T00:15:39;16.55;77.17
65637;DHT22;52327;42.622;23.316;2022-09-09T00:20:36;16.48;77.65
65637;DHT22;52327;42.622;23.316;2022-09-09T00:23:24;16.47;77.49
65637;DHT22;52327;42.622;23.316;2022-09-09T00:26:08;16.49;77.51
65637;DHT22;52327;42.622;23.316;2022-09-09T00:28:40;16.55;77.50
65637;DHT22;52327;42.622;23.316;2022-09-09T00:31:13;16.59;77.48
65637;DHT22;52327;42.622;23.316;2022-09-09T00:33:39;16.72;77.05
65637;DHT22;52327;42.622;23.316;2022-09-09T00:36:12;16.83;76.19
65637;DHT22;52327;42.622;23.316;2022-09-09T00:38:50;16.71;76.78
65637;DHT22;52327;42.622;23.316;2022-09-09T00:44:32;16.75;76.50
65637;DHT22;52327;42.622;23.316;2022-09-09T00:53:18;16.58;77.35
65637;DHT22;52327;42.622;23.316;2022-09-09T00:55:45;16.65;77.24
65637;DHT22;52327;42.622;23.316;2022-09-09T00:58:13;16.76;76.56
65637;DHT22;52327;42.622;23.316;2022-09-09T01:01:02;16.79;76.40
65637;DHT22;52327;42.622;23.316;2022-09-09T01:03:35;16.79;76.39
65637;DHT22;52327;42.622;23.316;2022-09-09T01:08:41;16.66;76.73
65637;DHT22;52327;42.622;23.316;2022-09-09T01:11:20;16.61;76.87
65637;DHT22;52327;42.622;23.316;2022-09-09T01:13:47;16.71;76.69
65637;DHT22;52327;42.622;23.316;2022-09-09T01:16:15;16.69;76.71
65637;DHT22;52327;42.622;23.316;2022-09-09T01:18:47;16.77;76.30
65637;DHT22;52327;42.622;23.316;2022-09-09T01:21:32;16.73;76.39
65637;DHT22;52327;42.622;23.316;2022-09-09T01:26:45;16.45;77.45
65637;DHT22;52327;42.622;23.316;2022-09-09T01:29:16;16.36;77.90
65637;DHT22;52327;42.622;23.316;2022-09-09T01:32:03;16.21;78.79
65637;DHT22;52327;42.622;23.316;2022-09-09T01:34:36;16.15;79.08
65637;DHT22;52327;42.622;23.316;2022-09-09T01:37:09;16.04;79.26
65637;DHT22;52327;42.622;23.316;2022-09-09T01:39:36;15.97;79.73
65637;DHT22;52327;42.622;23.316;2022-09-09T01:42:05;16.04;79.30
65637;DHT22;52327;42.622;23.316;2022-09-09T01:44:32;16.04;79.28
65637;DHT22;52327;42.622;23.316;2022-09-09T01:46:57;16.20;78.61
65637;DHT22;52327;42.622;23.316;2022-09-09T01:49:23;16.26;78.39
65637;DHT22;52327;42.622;23.316;2022-09-09T01:51:52;16.00;79.29
65637;DHT22;52327;42.622;23.316;2022-09-09T01:54:19;16.05;79.37
65637;DHT22;52327;42.622;23.316;2022-09-09T01:57:08;16.07;79.29
65637;DHT22;52327;42.622;23.316;2022-09-09T02:02:39;16.28;78.33
65637;DHT22;52327;42.622;23.316;2022-09-09T02:07:48;16.44;77.90
65637;DHT22;52327;42.622;23.316;2022-09-09T02:10:24;16.47;77.77
65637;DHT22;52327;42.622;23.316;2022-09-09T02:13:01;16.48;77.52
65637;DHT22;52327;42.622;23.316;2022-09-09T02:15:35;16.26;77.81
65637;DHT22;52327;42.622;23.316;2022-09-09T02:18:06;16.45;77.38
65637;DHT22;52327;42.622;23.316;2022-09-09T02:20:35;16.56;77.21
65637;DHT22;52327;42.622;23.316;2022-09-09T02:23:03;16.55;77.31
65637;DHT22;52327;42.622;23.316;2022-09-09T02:25:29;16.41;77.65
65637;DHT22;52327;42.622;23.316;2022-09-09T02:27:55;16.45;77.48
65637;DHT22;52327;42.622;23.316;2022-09-09T02:30:20;16.59;76.95
65637;DHT22;52327;42.622;23.316;2022-09-09T02:32:48;16.56;77.15
65637;DHT22;52327;42.622;23.316;2022-09-09T02:35:17;16.41;77.43
65637;DHT22;52327;42.622;23.316;2022-09-09T02:37:45;16.32;77.75
65637;DHT22;52327;42.622;23.316;2022-09-09T02:40:15;16.34;77.96
65637;DHT22;52327;42.622;23.316;2022-09-09T02:42:43;16.31;77.74
65637;DHT22;52327;42.622;23.316;2022-09-09T02:45:10;16.29;77.99
65637;DHT22;52327;42.622;23.316;2022-09-09T02:50:13;16.26;78.17
65637;DHT22;52327;42.622;23.316;2022-09-09T02:52:55;16.14;78.15
65637;DHT22;52327;42.622;23.316;2022-09-09T02:55:53;15.90;79.47
65637;DHT22;52327;42.622;23.316;2022-09-09T02:58:20;15.89;79.70
65637;DHT22;52327;42.622;23.316;2022-09-09T03:00:48;15.84;79.70
65637;DHT22;52327;42.622;23.316;2022-09-09T03:03:13;15.94;79.15
65637;DHT22;52327;42.622;23.316;2022-09-09T03:05:42;15.86;79.49
65637;DHT22;52327;42.622;23.316;2022-09-09T03:08:08;15.84;79.87
65637;DHT22;52327;42.622;23.316;2022-09-09T03:10:34;15.74;80.13
65637;DHT22;52327;42.622;23.316;2022-09-09T03:13:00;15.63;80.36
65637;DHT22;52327;42.622;23.316;2022-09-09T03:15:26;15.71;80.03
65637;DHT22;52327;42.622;23.316;2022-09-09T03:17:55;15.66;80.14
65637;DHT22;52327;42.622;23.316;2022-09-09T03:20:22;15.79;79.68
65637;DHT22;52327;42.622;23.316;2022-09-09T03:22:48;15.86;79.44
65637;DHT22;52327;42.622;23.316;2022-09-09T03:25:13;16.03;78.77
65637;DHT22;52327;42.622;23.316;2022-09-09T03:27:39;15.96;78.83
65637;DHT22;52327;42.622;23.316;2022-09-09T03:30:05;15.80;79.54
65637;DHT22;52327;42.622;23.316;2022-09-09T03:32:31;15.52;80.63
65637;DHT22;52327;42.622;23.316;2022-09-09T03:34:56;15.32;81.50
65637;DHT22;52327;42.622;23.316;2022-09-09T03:37:22;15.32;81.62
65637;DHT22;52327;42.622;23.316;2022-09-09T03:39:47;15.44;81.17
65637;DHT22;52327;42.622;23.316;2022-09-09T03:42:14;15.46;80.82
65637;DHT22;52327;42.622;23.316;2022-09-09T03:44:40;15.53;81.13
65637;DHT22;52327;42.622;23.316;2022-09-09T03:47:07;15.60;80.70
65637;DHT22;52327;42.622;23.316;2022-09-09T03:49:32;15.46;81.22
65637;DHT22;52327;42.622;23.316;2022-09-09T03:51:58;15.35;81.71
65637;DHT22;52327;42.622;23.316;2022-09-09T03:54:24;15.12;82.38
65637;DHT22;52327;42.622;23.316;2022-09-09T03:56:50;15.05;82.79
65637;DHT22;52327;42.622;23.316;2022-09-09T03:59:16;14.98;82.96
65637;DHT22;52327;42.622;23.316;2022-09-09T04:01:41;14.99;82.93
65637;DHT22;52327;42.622;23.316;2022-09-09T04:04:07;15.11;82.55
65637;DHT22;52327;42.622;23.316;2022-09-09T04:06:33;15.09;82.55
65637;DHT22;52327;42.622;23.316;2022-09-09T04:08:58;15.19;82.70
65637;DHT22;52327;42.622;23.316;2022-09-09T04:11:23;15.44;81.83
65637;DHT22;52327;42.622;23.316;2022-09-09T04:13:49;15.57;81.23
65637;DHT22;52327;42.622;23.316;2022-09-09T04:16:15;15.66;80.71
65637;DHT22;52327;42.622;23.316;2022-09-09T04:18:41;15.67;80.72
65637;DHT22;52327;42.622;23.316;2022-09-09T04:21:06;15.87;80.36
65637;DHT22;52327;42.622;23.316;2022-09-09T04:23:33;15.93;80.23
65637;DHT22;52327;42.622;23.316;2022-09-09T04:26:01;15.93;80.28
65637;DHT22;52327;42.622;23.316;2022-09-09T04:28:29;16.03;79.98
65637;DHT22;52327;42.622;23.316;2022-09-09T04:30:55;16.10;79.65
65637;DHT22;52327;42.622;23.316;2022-09-09T04:33:23;16.18;79.12
65637;DHT22;52327;42.622;23.316;2022-09-09T04:35:51;16.17;79.41
65637;DHT22;52327;42.622;23.316;2022-09-09T04:38:19;16.29;78.57
65637;DHT22;52327;42.622;23.316;2022-09-09T04:40:49;16.41;78.26
65637;DHT22;52327;42.622;23.316;2022-09-09T04:43:16;16.51;77.71
65637;DHT22;52327;42.622;23.316;2022-09-09T04:45:43;16.29;78.16
65637;DHT22;52327;42.622;23.316;2022-09-09T04:48:11;16.22;79.33
65637;DHT22;52327;42.622;23.316;2022-09-09T04:50:36;16.32;79.50
65637;DHT22;52327;42.622;23.316;2022-09-09T04:53:03;16.54;78.70
65637;DHT22;52327;42.622;23.316;2022-09-09T04:55:30;16.61;78.27
65637;DHT22;52327;42.622;23.316;2022-09-09T04:57:56;16.76;77.79
65637;DHT22;52327;42.622;23.316;2022-09-09T05:00:23;16.82;77.73
65637;DHT22;52327;42.622;23.316;2022-09-09T05:02:48;16.89;77.61
65637;DHT22;52327;42.622;23.316;2022-09-09T05:05:13;16.93;78.27
65637;DHT22;52327;42.622;23.316;2022-09-09T05:07:39;17.03;77.77
65637;DHT22;52327;42.622;23.316;2022-09-09T05:10:04;17.07;77.22
65637;DHT22;52327;42.622;23.316;2022-09-09T05:12:31;17.17;76.72
65637;DHT22;52327;42.622;23.316;2022-09-09T05:14:57;17.34;76.60
65637;DHT22;52327;42.622;23.316;2022-09-09T05:17:23;17.47;76.08
65637;DHT22;52327;42.622;23.316;2022-09-09T05:19:48;17.44;75.24
65637;DHT22;52327;42.622;23.316;2022-09-09T05:22:21;17.54;75.23
65637;DHT22;52327;42.622;23.316;2022-09-09T05:24:49;17.50;74.84
65637;DHT22;52327;42.622;23.316;2022-09-09T05:27:17;17.66;74.72
65637;DHT22;52327;42.622;23.316;2022-09-09T05:29:43;17.87;73.92
65637;DHT22;52327;42.622;23.316;2022-09-09T05:32:09;17.94;73.02
65637;DHT22;52327;42.622;23.316;2022-09-09T05:34:35;17.98;73.17
65637;DHT22;52327;42.622;23.316;2022-09-09T05:37:00;18.06;72.71
65637;DHT22;52327;42.622;23.316;2022-09-09T05:39:26;18.08;72.41
65637;DHT22;52327;42.622;23.316;2022-09-09T05:41:51;18.12;72.84
65637;DHT22;52327;42.622;23.316;2022-09-09T05:44:16;18.19;71.83
65637;DHT22;52327;42.622;23.316;2022-09-09T05:46:42;18.13;71.30
65637;DHT22;52327;42.622;23.316;2022-09-09T05:49:08;17.94;72.21
65637;DHT22;52327;42.622;23.316;2022-09-09T05:51:33;17.87;72.22
65637;DHT22;52327;42.622;23.316;2022-09-09T05:53:59;17.88;72.47
65637;DHT22;52327;42.622;23.316;2022-09-09T05:56:27;18.05;71.41
65637;DHT22;52327;42.622;23.316;2022-09-09T05:58:54;17.98;72.52
65637;DHT22;52327;42.622;23.316;2022-09-09T06:01:25;18.13;72.78
65637;DHT22;52327;42.622;23.316;2022-09-09T06:03:52;18.32;72.01
65637;DHT22;52327;42.622;23.316;2022-09-09T06:06:20;18.10;71.71
65637;DHT22;52327;42.622;23.316;2022-09-09T06:08:46;18.04;72.16
65637;DHT22;52327;42.622;23.316;2022-09-09T06:11:21;18.09;72.25
65637;DHT22;52327;42.622;23.316;2022-09-09T06:13:47;18.18;72.67
65637;DHT22;52327;42.622;23.316;2022-09-09T06:16:17;18.24;71.84
65637;DHT22;52327;42.622;23.316;2022-09-09T06:18:43;18.33;72.02
65637;DHT22;52327;42.622;23.316;2022-09-09T06:21:17;18.33;71.32
65637;DHT22;52327;42.622;23.316;2022-09-09T06:23:43;18.42;70.48
65637;DHT22;52327;42.622;23.316;2022-09-09T06:26:12;18.26;71.30
65637;DHT22;52327;42.622;23.316;2022-09-09T06:28:38;18.42;70.92
65637;DHT22;52327;42.622;23.316;2022-09-09T06:31:06;18.71;70.27
65637;DHT22;52327;42.622;23.316;2022-09-09T06:33:37;18.91;69.95
65637;DHT22;52327;42.622;23.316;2022-09-09T06:36:04;19.08;68.92
65637;DHT22;52327;42.622;23.316;2022-09-09T06:38:30;19.17;68.64
65637;DHT22;52327;42.622;23.316;2022-09-09T06:40:57;19.17;69.18
65637;DHT22;52327;42.622;23.316;2022-09-09T06:43:24;19.36;67.53
65637;DHT22;52327;42.622;23.316;2022-09-09T06:45:58;19.39;67.30
65637;DHT22;52327;42.622;23.316;2022-09-09T06:48:24;19.51;67.66
65637;DHT22;52327;42.622;23.316;2022-09-09T06:51:07;19.57;66.65
65637;DHT22;52327;42.622;23.316;2022-09-09T06:53:35;19.72;66.56
65637;DHT22;52327;42.622;23.316;2022-09-09T06:56:23;19.68;65.12
65637;DHT22;52327;42.622;23.316;2022-09-09T06:58:49;19.79;66.24
65637;DHT22;52327;42.622;23.316;2022-09-09T07:01:20;20.03;65.28
65637;DHT22;52327;42.622;23.316;2022-09-09T07:03:48;20.19;65.34
65637;DHT22;52327;42.622;23.316;2022-09-09T07:06:38;20.32;65.04
65637;DHT22;52327;42.622;23.316;2022-09-09T07:09:07;20.10;65.67
65637;DHT22;52327;42.622;23.316;2022-09-09T07:11:43;20.19;65.31
65637;DHT22;52327;42.622;23.316;2022-09-09T07:14:10;20.06;64.77
65637;DHT22;52327;42.622;23.316;2022-09-09T07:16:40;20.06;65.39
65637;DHT22;52327;42.622;23.316;2022-09-09T07:19:05;20.17;64.84
65637;DHT22;52327;42.622;23.316;2022-09-09T07:21:32;20.37;63.89
65637;DHT22;52327;42.622;23.316;2022-09-09T07:23:58;20.50;64.01
65637;DHT22;52327;42.622;23.316;2022-09-09T07:26:27;20.77;63.63
65637;DHT22;52327;42.622;23.316;2022-09-09T07:28:53;20.96;62.91
65637;DHT22;52327;42.622;23.316;2022-09-09T07:31:38;21.15;62.40
65637;DHT22;52327;42.622;23.316;2022-09-09T07:34:05;21.16;60.95
65637;DHT22;52327;42.622;23.316;2022-09-09T07:36:40;21.06;61.81
65637;DHT22;52327;42.622;23.316;2022-09-09T07:39:10;21.16;61.68
65637;DHT22;52327;42.622;23.316;2022-09-09T07:41:37;21.12;61.52
65637;DHT22;52327;42.622;23.316;2022-09-09T07:44:08;21.19;61.31
65637;DHT22;52327;42.622;23.316;2022-09-09T07:46:35;21.26;63.05
65637;DHT22;52327;42.622;23.316;2022-09-09T07:49:00;21.67;60.63
65637;DHT22;52327;42.622;23.316;2022-09-09T07:51:30;21.77;60.14
65637;DHT22;52327;42.622;23.316;2022-09-09T07:53:58;22.07;59.74
65637;DHT22;52327;42.622;23.316;2022-09-09T07:56:25;22.48;59.08
65637;DHT22;52327;42.622;23.316;2022-09-09T07:58:53;22.55;57.04
65637;DHT22;52327;42.622;23.316;2022-09-09T08:01:24;22.31;56.73
65637;DHT22;52327;42.622;23.316;2022-09-09T08:04:01;22.17;57.52
65637;DHT22;52327;42.622;23.316;2022-09-09T08:06:39;22.04;58.65
65637;DHT22;52327;42.622;23.316;2022-09-09T08:09:06;22.28;59.29
65637;DHT22;52327;42.622;23.316;2022-09-09T08:11:32;22.71;57.71
65637;DHT22;52327;42.622;23.316;2022-09-09T08:13:59;23.02;56.65
65637;DHT22;52327;42.622;23.316;2022-09-09T08:16:30;23.07;56.91
65637;DHT22;52327;42.622;23.316;2022-09-09T08:18:56;23.31;55.69
65637;DHT22;52327;42.622;23.316;2022-09-09T08:21:24;23.42;55.36
65637;DHT22;52327;42.622;23.316;2022-09-09T08:23:52;23.43;56.29
65637;DHT22;52327;42.622;23.316;2022-09-09T08:26:23;23.75;55.34
65637;DHT22;52327;42.622;23.316;2022-09-09T08:28:50;23.51;54.34
65637;DHT22;52327;42.622;23.316;2022-09-09T08:31:22;23.58;53.14
65637;DHT22;52327;42.622;23.316;2022-09-09T08:33:48;23.93;53.14
65637;DHT22;52327;42.622;23.316;2022-09-09T08:36:19;24.29;53.80
65637;DHT22;52327;42.622;23.316;2022-09-09T08:38:54;24.94;51.78
65637;DHT22;52327;42.622;23.316;2022-09-09T08:44:07;25.16;49.83
65637;DHT22;52327;42.622;23.316;2022-09-09T08:49:49;25.40;50.01
65637;DHT22;52327;42.622;23.316;2022-09-09T08:52:20;25.48;49.45
65637;DHT22;52327;42.622;23.316;2022-09-09T08:54:47;25.74;48.20
65637;DHT22;52327;42.622;23.316;2022-09-09T08:57:23;25.86;47.87
65637;DHT22;52327;42.622;23.316;2022-09-09T08:59:54;25.93;48.19
65637;DHT22;52327;42.622;23.316;2022-09-09T09:02:41;25.96;47.46
65637;DHT22;52327;42.622;23.316;2022-09-09T09:06:18;25.85;47.10
65637;DHT22;52327;42.622;23.316;2022-09-09T09:08:27;25.77;48.54
65637;DHT22;52327;42.622;23.316;2022-09-09T09:10:56;26.06;47.96
65637;DHT22;52327;42.622;23.316;2022-09-09T09:16:10;26.22;47.46
65637;DHT22;52327;42.622;23.316;2022-09-09T09:18:38;26.54;46.81
65637;DHT22;52327;42.622;23.316;2022-09-09T09:21:14;26.76;45.94
65637;DHT22;52327;42.622;23.316;2022-09-09T09:23:57;26.83;45.86
65637;DHT22;52327;42.622;23.316;2022-09-09T09:26:34;27.03;45.48
65637;DHT22;52327;42.622;23.316;2022-09-09T09:29:08;27.14;45.53
65637;DHT22;52327;42.622;23.316;2022-09-09T09:31:35;27.16;45.39
65637;DHT22;52327;42.622;23.316;2022-09-09T09:34:00;27.30;44.73
65637;DHT22;52327;42.622;23.316;2022-09-09T09:36:43;27.24;44.27
65637;DHT22;52327;42.622;23.316;2022-09-09T09:39:22;27.39;44.26
65637;DHT22;52327;42.622;23.316;2022-09-09T09:41:48;27.59;43.40
65637;DHT22;52327;42.622;23.316;2022-09-09T09:44:40;27.75;42.23
65637;DHT22;52327;42.622;23.316;2022-09-09T09:47:18;27.95;42.26
65637;DHT22;52327;42.622;23.316;2022-09-09T09:49:57;28.03;42.12
65637;DHT22;52327;42.622;23.316;2022-09-09T09:52:27;28.09;41.52
65637;DHT22;52327;42.622;23.316;2022-09-09T09:54:54;28.07;40.81
65637;DHT22;52327;42.622;23.316;2022-09-09T09:57:26;27.99;41.47
65637;DHT22;52327;42.622;23.316;2022-09-09T10:00:17;28.06;41.90
65637;DHT22;52327;42.622;23.316;2022-09-09T10:02:45;27.75;41.38
65637;DHT22;52327;42.622;23.316;2022-09-09T10:05:25;27.05;41.18
65637;DHT22;52327;42.622;23.316;2022-09-09T10:08:10;26.06;43.43
65637;DHT22;52327;42.622;23.316;2022-09-09T10:24:12;26.65;43.40
65637;DHT22;52327;42.622;23.316;2022-09-09T10:35:46;26.74;44.27
65637;DHT22;52327;42.622;23.316;2022-09-09T10:37:53;25.92;44.62
65637;DHT22;52327;42.622;23.316;2022-09-09T10:52:06;26.43;45.50
65637;DHT22;52327;42.622;23.316;2022-09-09T10:57:08;26.65;44.47
65637;DHT22;52327;42.622;23.316;2022-09-09T10:59:42;26.47;44.24
65637;DHT22;52327;42.622;23.316;2022-09-09T11:04:45;26.61;45.07
65637;DHT22;52327;42.622;23.316;2022-09-09T11:07:16;26.87;45.57
65637;DHT22;52327;42.622;23.316;2022-09-09T11:09:49;27.03;45.56
65637;DHT22;52327;42.622;23.316;2022-09-09T11:12:19;27.00;45.60
65637;DHT22;52327;42.622;23.316;2022-09-09T11:14:59;27.05;45.29
65637;DHT22;52327;42.622;23.316;2022-09-09T11:17:35;27.32;45.25
65637;DHT22;52327;42.622;23.316;2022-09-09T11:20:01;27.51;44.90
65637;DHT22;52327;42.622;23.316;2022-09-09T11:22:37;27.82;44.38
65637;DHT22;52327;42.622;23.316;2022-09-09T11:25:13;27.97;44.15
65637;DHT22;52327;42.622;23.316;2022-09-09T11:36:37;28.06;43.27
65637;DHT22;52327;42.622;23.316;2022-09-09T11:42:07;28.27;41.85
65637;DHT22;52327;42.622;23.316;2022-09-09T11:44:41;28.30;42.54
65637;DHT22;52327;42.622;23.316;2022-09-09T11:47:36;28.36;43.22
65637;DHT22;52327;42.622;23.316;2022-09-09T11:52:41;28.47;42.27
65637;DHT22;52327;42.622;23.316;2022-09-09T11:55:27;28.32;42.76
65637;DHT22;52327;42.622;23.316;2022-09-09T12:02:58;28.10;42.40
65637;DHT22;52327;42.622;23.316;2022-09-09T12:05:41;28.23;41.97
65637;DHT22;52327;42.622;23.316;2022-09-09T12:08:10;28.43;42.71
65637;DHT22;52327;42.622;23.316;2022-09-09T12:10:39;28.91;41.97
65637;DHT22;52327;42.622;23.316;2022-09-09T12:13:22;29.29;40.33
65637;DHT22;52327;42.622;23.316;2022-09-09T12:15:56;29.47;40.37
65637;DHT22;52327;42.622;23.316;2022-09-09T12:18:24;29.59;40.35
65637;DHT22;52327;42.622;23.316;2022-09-09T12:20:57;30.04;39.74
65637;DHT22;52327;42.622;23.316;2022-09-09T12:23:52;30.35;38.34
65637;DHT22;52327;42.622;23.316;2022-09-09T12:26:29;29.91;38.78
65637;DHT22;52327;42.622;23.316;2022-09-09T12:34:46;30.29;38.79
65637;DHT22;52327;42.622;23.316;2022-09-09T12:42:40;29.43;41.43
65637;DHT22;52327;42.622;23.316;2022-09-09T12:45:24;29.43;40.76
65637;DHT22;52327;42.622;23.316;2022-09-09T12:50:21;29.20;41.09
65637;DHT22;52327;42.622;23.316;2022-09-09T12:52:49;28.12;43.52
65637;DHT22;52327;42.622;23.316;2022-09-09T12:55:21;28.87;42.66
65637;DHT22;52327;42.622;23.316;2022-09-09T12:57:51;30.01;40.82
65637;DHT22;52327;42.622;23.316;2022-09-09T13:00:19;30.80;38.72
65637;DHT22;52327;42.622;23.316;2022-09-09T13:03:00;30.54;39.05
65637;DHT22;52327;42.622;23.316;2022-09-09T13:05:28;30.07;39.40
65637;DHT22;52327;42.622;23.316;2022-09-09T13:08:06;29.87;39.64
65637;DHT22;52327;42.622;23.316;2022-09-09T13:11:23;29.73;40.64
65637;DHT22;52327;42.622;23.316;2022-09-09T13:13:38;29.73;40.76
65637;DHT22;52327;42.622;23.316;2022-09-09T13:16:06;29.84;41.00
65637;DHT22;52327;42.622;23.316;2022-09-09T13:18:34;29.97;40.59
65637;DHT22;52327;42.622;23.316;2022-09-09T13:21:01;29.96;39.78
65637;DHT22;52327;42.622;23.316;2022-09-09T13:23:29;30.37;38.65
65637;DHT22;52327;42.622;23.316;2022-09-09T13:26:06;30.86;38.60
65637;DHT22;52327;42.622;23.316;2022-09-09T13:28:41;31.85;37.03
65637;DHT22;52327;42.622;23.316;2022-09-09T13:31:21;32.21;36.03
65637;DHT22;52327;42.622;23.316;2022-09-09T13:33:47;31.67;36.79
65637;DHT22;52327;42.622;23.316;2022-09-09T13:36:13;31.00;37.40
65637;DHT22;52327;42.622;23.316;2022-09-09T13:41:30;30.03;39.37
65637;DHT22;52327;42.622;23.316;2022-09-09T13:43:57;29.70;39.45
65637;DHT22;52327;42.622;23.316;2022-09-09T13:46:40;29.72;40.48
65637;DHT22;52327;42.622;23.316;2022-09-09T13:51:47;30.41;39.33
65637;DHT22;52327;42.622;23.316;2022-09-09T13:54:15;30.79;38.88
65637;DHT22;52327;42.622;23.316;2022-09-09T13:56:41;30.75;38.79
65637;DHT22;52327;42.622;23.316;2022-09-09T13:59:18;30.55;39.00
65637;DHT22;52327;42.622;23.316;2022-09-09T14:01:47;30.23;39.76
65637;DHT22;52327;42.622;23.316;2022-09-09T14:04:14;30.00;39.90
65637;DHT22;52327;42.622;23.316;2022-09-09T14:06:41;30.20;39.14
65637;DHT22;52327;42.622;23.316;2022-09-09T14:09:09;30.62;39.20
65637;DHT22;52327;42.622;23.316;2022-09-09T14:11:34;32.01;36.33
65637;DHT22;52327;42.622;23.316;2022-09-09T14:14:00;31.94;36.18
65637;DHT22;52327;42.622;23.316;2022-09-09T14:16:26;30.85;38.56
65637;DHT22;52327;42.622;23.316;2022-09-09T14:18:53;30.13;39.77
65637;DHT22;52327;42.622;23.316;2022-09-09T14:21:18;29.22;41.02
65637;DHT22;52327;42.622;23.316;2022-09-09T14:23:44;28.95;41.53
65637;DHT22;52327;42.622;23.316;2022-09-09T14:26:09;30.07;40.20
65637;DHT22;52327;42.622;23.316;2022-09-09T14:28:36;30.67;39.23
65637;DHT22;52327;42.622;23.316;2022-09-09T14:31:04;32.70;35.25
65637;DHT22;52327;42.622;23.316;2022-09-09T14:33:30;34.66;32.09
65637;DHT22;52327;42.622;23.316;2022-09-09T14:35:57;35.33;30.54
65637;DHT22;52327;42.622;23.316;2022-09-09T14:38:24;34.36;32.24
65637;DHT22;52327;42.622;23.316;2022-09-09T14:40:49;32.98;33.70
65637;DHT22;52327;42.622;23.316;2022-09-09T14:43:15;32.12;35.70
65637;DHT22;52327;42.622;23.316;2022-09-09T14:45:40;31.49;36.39
65637;DHT22;52327;42.622;23.316;2022-09-09T14:48:06;31.09;37.21
65637;DHT22;52327;42.622;23.316;2022-09-09T14:50:31;30.80;37.57
65637;DHT22;52327;42.622;23.316;2022-09-09T14:52:57;30.64;37.98
65637;DHT22;52327;42.622;23.316;2022-09-09T14:55:22;30.28;38.11
65637;DHT22;52327;42.622;23.316;2022-09-09T14:57:48;29.83;39.55
65637;DHT22;52327;42.622;23.316;2022-09-09T15:00:13;29.43;40.96
65637;DHT22;52327;42.622;23.316;2022-09-09T15:02:39;29.16;43.13
65637;DHT22;52327;42.622;23.316;2022-09-09T15:05:05;28.79;44.51
65637;DHT22;52327;42.622;23.316;2022-09-09T15:07:31;28.33;46.66
65637;DHT22;52327;42.622;23.316;2022-09-09T15:09:57;27.82;48.12
65637;DHT22;52327;42.622;23.316;2022-09-09T15:12:23;27.25;49.56
65637;DHT22;52327;42.622;23.316;2022-09-09T15:14:49;27.03;50.02
65637;DHT22;52327;42.622;23.316;2022-09-09T15:17:15;26.32;51.26
65637;DHT22;52327;42.622;23.316;2022-09-09T15:19:41;26.05;51.81
65637;DHT22;52327;42.622;23.316;2022-09-09T15:22:08;25.85;53.23
65637;DHT22;52327;42.622;23.316;2022-09-09T15:24:34;25.51;54.06
65637;DHT22;52327;42.622;23.316;2022-09-09T15:27:01;24.65;56.70
65637;DHT22;52327;42.622;23.316;2022-09-09T15:29:27;24.39;56.64
65637;DHT22;52327;42.622;23.316;2022-09-09T15:31:55;24.75;56.15
65637;DHT22;52327;42.622;23.316;2022-09-09T15:34:21;24.91;56.00
65637;DHT22;52327;42.622;23.316;2022-09-09T15:36:47;25.02;55.78
65637;DHT22;52327;42.622;23.316;2022-09-09T15:39:17;25.04;55.96
65637;DHT22;52327;42.622;23.316;2022-09-09T15:41:47;24.43;57.04
65637;DHT22;52327;42.622;23.316;2022-09-09T15:44:14;24.02;58.43
65637;DHT22;52327;42.622;23.316;2022-09-09T15:46:45;23.77;59.10
65637;DHT22;52327;42.622;23.316;2022-09-09T15:49:15;23.29;60.55
65637;DHT22;52327;42.622;23.316;2022-09-09T15:51:45;22.99;61.23
65637;DHT22;52327;42.622;23.316;2022-09-09T15:54:13;23.02;60.74
65637;DHT22;52327;42.622;23.316;2022-09-09T15:56:39;23.02;61.15
65637;DHT22;52327;42.622;23.316;2022-09-09T15:59:05;22.99;60.75
65637;DHT22;52327;42.622;23.316;2022-09-09T16:01:31;22.86;60.81
65637;DHT22;52327;42.622;23.316;2022-09-09T16:03:58;22.78;60.56
65637;DHT22;52327;42.622;23.316;2022-09-09T16:06:24;22.59;61.49
65637;DHT22;52327;42.622;23.316;2022-09-09T16:08:52;22.41;61.92
65637;DHT22;52327;42.622;23.316;2022-09-09T16:11:23;22.30;62.12
65637;DHT22;52327;42.622;23.316;2022-09-09T16:13:51;22.35;62.01
65637;DHT22;52327;42.622;23.316;2022-09-09T16:16:19;22.25;61.97
65637;DHT22;52327;42.622;23.316;2022-09-09T16:18:49;22.43;61.32
65637;DHT22;52327;42.622;23.316;2022-09-09T16:21:20;22.58;61.18
65637;DHT22;52327;42.622;23.316;2022-09-09T16:23:46;22.56;61.19
65637;DHT22;52327;42.622;23.316;2022-09-09T16:26:14;22.68;61.12
65637;DHT22;52327;42.622;23.316;2022-09-09T16:28:40;22.45;62.14
65637;DHT22;52327;42.622;23.316;2022-09-09T16:31:11;22.22;62.43
65637;DHT22;52327;42.622;23.316;2022-09-09T16:33:39;22.24;62.70
65637;DHT22;52327;42.622;23.316;2022-09-09T16:36:09;22.15;62.84
65637;DHT22;52327;42.622;23.316;2022-09-09T16:38:36;22.24;62.13
65637;DHT22;52327;42.622;23.316;2022-09-09T16:41:05;22.01;62.37
65637;DHT22;52327;42.622;23.316;2022-09-09T16:43:34;22.07;62.22
65637;DHT22;52327;42.622;23.316;2022-09-09T16:46:00;21.94;62.81
65637;DHT22;52327;42.622;23.316;2022-09-09T16:48:34;22.07;62.23
65637;DHT22;52327;42.622;23.316;2022-09-09T16:51:08;21.90;63.48
65637;DHT22;52327;42.622;23.316;2022-09-09T16:53:35;21.63;64.07
65637;DHT22;52327;42.622;23.316;2022-09-09T16:56:06;21.70;63.86
65637;DHT22;52327;42.622;23.316;2022-09-09T16:58:32;21.80;63.48
65637;DHT22;52327;42.622;23.316;2022-09-09T17:00:58;21.98;62.95
65637;DHT22;52327;42.622;23.316;2022-09-09T17:03:24;21.94;62.94
65637;DHT22;52327;42.622;23.316;2022-09-09T17:05:49;21.92;62.90
65637;DHT22;52327;42.622;23.316;2022-09-09T17:08:15;21.94;63.17
65637;DHT22;52327;42.622;23.316;2022-09-09T17:10:41;21.80;63.20
65637;DHT22;52327;42.622;23.316;2022-09-09T17:13:07;21.67;63.41
65637;DHT22;52327;42.622;23.316;2022-09-09T17:15:32;21.66;63.15
65637;DHT22;52327;42.622;23.316;2022-09-09T17:17:59;21.66;63.38
65637;DHT22;52327;42.622;23.316;2022-09-09T17:20:25;21.57;63.91
65637;DHT22;52327;42.622;23.316;2022-09-09T17:22:50;21.56;63.58
65637;DHT22;52327;42.622;23.316;2022-09-09T17:25:16;21.32;64.03
65637;DHT22;52327;42.622;23.316;2022-09-09T17:27:42;21.41;63.94
65637;DHT22;52327;42.622;23.316;2022-09-09T17:30:08;21.31;64.63